Aérodrome :
LOGIN :

S'inscrire | Disclaimer

   EN    FR    IT 

 










Légende :    VFR   VFR Marginal   IFR   IFR Intensif   IFR Très Intensif
Visi : 
Plafond : 
>= 8 km
>= 3000ft
5 à 8 km
1000 à 3000 ft
1500m à 5 km
500 à 1000 ft
800 à 1500m
200 à 500 ft
< 800m
< 200 ft
Symboles :   Orages  Brouillard  Fortes neiges  Fortes précipitations  Vent > 20 kt
SIGMETs :   Divers  Orages  Givrage  Turbulence  Onde Orograph.  Cendres Volcan.






- Altitude de l'aérodrome : 584 ft


LFPV - Villacoublay Vélizy

DERNIER METAR :
  • 041630Z AUTO VRB02KT 9999 OVC041 18/12 Q1012 NOSIG

METARs EXPIRÉS :
  • 041600Z AUTO 12004KT 090V170 9999 BKN039 OVC045 18/12 Q1012 NOSIG
  • 041530Z AUTO 12004KT 070V160 9999 OVC042 18/12 Q1012 NOSIG
  • 041500Z AUTO VRB03KT 9999 FEW026 OVC047 18/12 Q1012 NOSIG
  • 041430Z AUTO 08004KT 040V140 9999 FEW027/// OVC048/// ///TCU 18/13 Q1012 BECMG NSC
  • 041400Z AUTO 12005KT 090V160 9999 FEW024 OVC050 19/13 Q1012
  • 041330Z AUTO 11005KT 070V150 9999 FEW023 BKN052 OVC092 19/14 Q1012 TEMPO 4000 SHRA BKN040TCU

TAF TAF LFPV
Valide du 04 à 15h jusqu'au 05 à 15h UTC


041400Z 0415/0515 12006KT 9999 NSC TX19/0415Z TN13/0503Z
BECMG 0419/0420 CAVOK
TEMPO 0510/0515 4500 SHRA SCT030TCU



MET'MAP, la Météo Aéronautique d'un coup d'oeil ! - Copyright ORBIFLY Décembre 2007 - Disclaimer

ORBIFLY MET'MAP TEAM :

Programmation & Développement : Alexandra Zaïnal
Sur une idée originale de : Baudouin d'Aumeries
Assistance à la programmation : Marc-Olivier Méhu
Soutien technique & logistique : Manuel Goepfert

Contact : metmap@orbifly.com




SOURCES & CREDITS :

   NOAA